Time;durP1;ratioP1;P1;durP2;ratioP2;P2;SDS_P1;SDS_P2;PMS_P1;PMS_P2;Temp;Humidity;BMP_temperature;BMP_pressure;BME280_temperature;BME280_humidity;BME280_pressure;Samples;Min_cycle;Max_cycle;Signal;HPM_P1;HPM_P2
2024/04/24 00:00:27;;;;;;;4.18;1.30;;;;;;;8.42;100.00;101290.28;5638952;26;20003;-74
2024/04/24 00:03:02;;;;;;;6.82;1.75;;;;;;;8.37;100.00;101290.59;5639316;26;20025;-73
2024/04/24 00:05:34;;;;;;;5.28;1.27;;;;;;;8.39;100.00;101286.09;5638421;26;20018;-74
2024/04/24 00:08:06;;;;;;;5.60;1.30;;;;;;;8.34;100.00;101284.72;5639265;26;20242;-71
2024/04/24 00:10:38;;;;;;;4.50;1.02;;;;;;;8.27;100.00;101273.84;5636901;26;20018;-74
2024/04/24 00:13:10;;;;;;;5.28;1.60;;;;;;;8.24;100.00;101271.44;5632597;26;20443;-73
2024/04/24 00:15:42;;;;;;;4.32;1.23;;;;;;;8.24;100.00;101261.00;5629858;26;20010;-74
2024/04/24 00:18:14;;;;;;;4.13;1.08;;;;;;;8.17;100.00;101249.31;5634546;26;20003;-73
2024/04/24 00:20:46;;;;;;;2.40;0.90;;;;;;;8.22;100.00;101258.50;5650261;26;20009;-72
2024/04/24 00:23:18;;;;;;;3.25;0.90;;;;;;;8.21;100.00;101245.56;5637193;26;20003;-73
2024/04/24 00:25:50;;;;;;;2.45;0.90;;;;;;;8.19;100.00;101247.44;5637401;26;20340;-74
2024/04/24 00:28:22;;;;;;;4.07;0.98;;;;;;;8.19;100.00;101252.66;5638107;26;20004;-74
2024/04/24 00:30:58;;;;;;;3.95;1.35;;;;;;;8.30;100.00;101244.94;5629740;26;20010;-71
2024/04/24 00:33:30;;;;;;;4.57;1.10;;;;;;;8.26;100.00;101241.69;5628991;26;20022;-74
2024/04/24 00:36:02;;;;;;;4.25;1.15;;;;;;;8.25;100.00;101234.78;5639826;26;20010;-73
2024/04/24 00:38:34;;;;;;;3.35;1.08;;;;;;;8.25;100.00;101236.56;5640197;26;20040;-72
2024/04/24 00:41:06;;;;;;;3.55;1.00;;;;;;;8.28;100.00;101236.38;5629433;26;19998;-72
2024/04/24 00:43:38;;;;;;;3.30;1.30;;;;;;;8.27;100.00;101237.31;5642202;26;20044;-72
2024/04/24 00:46:13;;;;;;;2.25;0.93;;;;;;;8.25;100.00;101236.56;5632919;26;20011;-73
2024/04/24 00:48:45;;;;;;;3.75;1.13;;;;;;;8.16;100.00;101226.78;5633787;26;20017;-73
2024/04/24 00:51:17;;;;;;;4.88;1.20;;;;;;;8.19;100.00;101223.97;5636972;26;20007;-73
2024/04/24 00:53:51;;;;;;;4.30;1.13;;;;;;;8.24;100.00;101224.47;5630259;26;20126;-72
2024/04/24 00:56:22;;;;;;;;;;;;;;;8.91;100.00;101225.00;5629067;26;20011;-73
2024/04/24 00:58:54;;;;;;;2.42;1.17;;;;;;;8.21;100.00;101212.44;5635007;26;19940;-72
2024/04/24 01:01:27;;;;;;;3.70;1.27;;;;;;;8.17;100.00;101215.38;5638200;26;20707;-72
2024/04/24 01:03:59;;;;;;;3.57;1.30;;;;;;;8.22;100.00;101206.31;5632264;26;20025;-72
2024/04/24 01:06:30;;;;;;;6.10;1.40;;;;;;;8.20;100.00;101205.56;5635709;26;20003;-72
2024/04/24 01:09:02;;;;;;;2.75;1.15;;;;;;;8.21;100.00;101204.63;5633327;26;20043;-72
2024/04/24 01:11:35;;;;;;;4.45;1.23;;;;;;;8.19;100.00;101197.84;5637343;26;20468;-72
2024/04/24 01:14:07;;;;;;;3.33;1.30;;;;;;;8.22;100.00;101195.00;5626617;26;20014;-72
2024/04/24 01:16:40;;;;;;;3.42;1.13;;;;;;;8.18;100.00;101199.63;5625876;26;20018;-72
2024/04/24 01:19:31;;;;;;;3.33;1.17;;;;;;;8.52;100.00;101194.69;5629872;26;20009;-72
2024/04/24 01:22:24;;;;;;;4.60;1.00;;;;;;;8.26;100.00;101201.72;5627799;26;20426;-72
2024/04/24 01:25:42;;;;;;;5.00;1.00;;;;;;;8.53;100.00;101191.97;5632659;26;20039;-72
2024/04/24 01:28:14;;;;;;;5.53;1.00;;;;;;;8.11;100.00;101176.69;5637263;26;20916;-73
2024/04/24 01:30:46;;;;;;;3.90;0.93;;;;;;;8.13;100.00;101174.78;5631760;26;20046;-72
2024/04/24 01:33:18;;;;;;;3.25;0.90;;;;;;;8.08;100.00;101176.88;5630297;26;20036;-73
2024/04/24 01:35:50;;;;;;;2.78;1.02;;;;;;;8.06;100.00;101171.75;5642714;26;20033;-73
2024/04/24 01:38:22;;;;;;;3.72;1.00;;;;;;;8.09;100.00;101179.38;5628659;26;20072;-72
2024/04/24 01:40:54;;;;;;;3.55;1.42;;;;;;;8.03;100.00;101174.56;5635075;26;20023;-73
2024/04/24 01:43:26;;;;;;;2.55;1.00;;;;;;;8.04;100.00;101171.88;5632548;26;20007;-73
2024/04/24 01:45:57;;;;;;;3.42;1.05;;;;;;;8.05;100.00;101168.31;5629884;26;20007;-73
2024/04/24 01:48:29;;;;;;;3.15;1.13;;;;;;;8.05;100.00;101180.53;5623967;26;20469;-73
2024/04/24 01:51:01;;;;;;;4.55;1.02;;;;;;;7.96;100.00;101160.31;5628619;26;20076;-72
2024/04/24 01:53:33;;;;;;;3.38;1.02;;;;;;;8.04;100.00;101171.88;5631607;26;20007;-72
2024/04/24 01:56:09;;;;;;;3.30;1.17;;;;;;;7.98;100.00;101166.22;5639934;26;20021;-72
2024/04/24 01:58:41;;;;;;;4.63;1.00;;;;;;;8.01;100.00;101172.06;5638865;26;20036;-73
2024/04/24 02:01:13;;;;;;;3.83;1.10;;;;;;;8.02;100.00;101171.13;5631149;26;19998;-73
2024/04/24 02:03:45;;;;;;;4.05;1.27;;;;;;;8.01;100.00;101171.25;5633718;26;19999;-72
2024/04/24 02:06:17;;;;;;;4.63;1.27;;;;;;;8.01;100.00;101173.84;5634284;26;20946;-72
2024/04/24 02:08:49;;;;;;;4.60;1.10;;;;;;;8.00;100.00;101167.81;5639532;26;20008;-72
2024/04/24 02:11:21;;;;;;;3.85;1.45;;;;;;;7.99;100.00;101162.69;5623340;26;21062;-72
2024/04/24 02:13:53;;;;;;;3.08;1.38;;;;;;;7.93;100.00;101168.34;5626757;26;20016;-72
2024/04/24 02:16:25;;;;;;;3.70;1.23;;;;;;;7.93;100.00;101168.34;5638376;26;20015;-73
2024/04/24 02:18:59;;;;;;;3.85;1.23;;;;;;;7.92;100.00;101158.84;5634074;26;20019;-72
2024/04/24 02:21:34;;;;;;;2.90;1.15;;;;;;;7.95;100.00;101158.59;5629734;26;19999;-72
2024/04/24 02:24:08;;;;;;;5.13;1.00;;;;;;;7.93;100.00;101156.13;5641664;26;20843;-72
2024/04/24 02:26:39;;;;;;;4.35;1.40;;;;;;;7.90;100.00;101156.31;5622805;26;20021;-72
2024/04/24 02:29:11;;;;;;;2.80;1.10;;;;;;;7.80;100.00;101144.84;5631401;26;20011;-73
2024/04/24 02:31:43;;;;;;;4.22;1.17;;;;;;;7.84;100.00;101145.47;5628115;26;20015;-72
2024/04/24 02:34:16;;;;;;;4.82;0.90;;;;;;;7.82;100.00;101140.38;5631372;26;20461;-72
2024/04/24 02:36:48;;;;;;;4.13;1.13;;;;;;;7.82;100.00;101129.94;5629408;26;20003;-72
2024/04/24 02:39:20;;;;;;;4.35;1.10;;;;;;;7.71;100.00;101116.78;5633420;26;20006;-72
2024/04/24 02:41:52;;;;;;;4.50;1.20;;;;;;;7.76;100.00;101125.97;5635645;26;20082;-72
2024/04/24 02:44:23;;;;;;;3.08;0.90;;;;;;;7.79;100.00;101130.13;5623489;26;20425;-73
2024/04/24 02:46:55;;;;;;;2.38;0.73;;;;;;;7.75;100.00;101118.25;5634483;26;20017;-72
2024/04/24 02:49:27;;;;;;;3.25;0.95;;;;;;;7.73;100.00;101118.38;5643122;26;20097;-72
2024/04/24 02:51:59;;;;;;;3.67;1.05;;;;;;;7.75;100.00;101115.63;5631952;26;20004;-73
2024/04/24 02:54:31;;;;;;;3.55;0.93;;;;;;;7.73;100.00;101114.94;5634693;26;20007;-72
2024/04/24 02:57:03;;;;;;;5.30;1.00;;;;;;;7.70;100.00;101109.91;5641696;26;20027;-73
2024/04/24 02:59:35;;;;;;;3.10;0.68;;;;;;;7.71;100.00;101095.94;5641125;26;20454;-72
2024/04/24 03:02:07;;;;;;;3.28;1.10;;;;;;;7.66;100.00;101085.00;5641016;26;21771;-73
2024/04/24 03:04:42;;;;;;;4.07;0.80;;;;;;;7.63;100.00;101082.59;5640590;26;20073;-72
2024/04/24 03:07:14;;;;;;;4.40;1.00;;;;;;;7.63;100.00;101079.97;5630753;26;19999;-72
2024/04/24 03:09:46;;;;;;;4.35;0.98;;;;;;;7.62;100.00;101084.38;5642438;26;20475;-73
2024/04/24 03:12:17;;;;;;;4.05;1.10;;;;;;;7.61;100.00;101087.06;5637537;26;20003;-72
2024/04/24 03:14:49;;;;;;;3.17;1.05;;;;;;;7.59;100.00;101083.75;5641094;26;20023;-72
2024/04/24 03:17:21;;;;;;;4.15;1.08;;;;;;;7.59;100.00;101079.34;5633947;26;20035;-72
2024/04/24 03:19:53;;;;;;;2.70;1.00;;;;;;;7.54;100.00;101074.47;5637297;26;20093;-73
2024/04/24 03:22:28;;;;;;;4.55;1.10;;;;;;;7.60;100.00;101078.41;5632940;26;20002;-73
2024/04/24 03:24:59;;;;;;;3.50;1.15;;;;;;;7.48;100.00;101074.88;5631692;26;20021;-72
2024/04/24 03:27:32;;;;;;;3.78;1.10;;;;;;;7.42;100.00;101074.44;5636987;26;20014;-72
2024/04/24 03:30:04;;;;;;;5.85;1.30;;;;;;;7.43;100.00;101071.75;5630965;26;20017;-72
2024/04/24 03:32:37;;;;;;;5.10;1.20;;;;;;;7.39;100.00;101065.09;5629038;26;20012;-74
2024/04/24 03:35:09;;;;;;;3.70;1.30;;;;;;;7.40;100.00;101058.91;5621974;26;20018;-72
2024/04/24 03:37:41;;;;;;;3.33;1.00;;;;;;;7.23;100.00;101043.59;5627806;26;20014;-72
2024/04/24 03:40:13;;;;;;;3.88;1.10;;;;;;;7.29;100.00;101054.44;5633614;26;20349;-73
2024/04/24 03:42:45;;;;;;;2.58;0.98;;;;;;;7.32;100.00;101056.84;5635412;26;20313;-73
2024/04/24 03:45:17;;;;;;;5.63;1.40;;;;;;;7.28;100.00;101051.94;5630800;26;20031;-74
2024/04/24 03:47:49;;;;;;;5.45;1.35;;;;;;;7.29;100.00;101051.00;5636288;26;20007;-74
2024/04/24 03:50:21;;;;;;;3.60;1.20;;;;;;;7.29;100.00;101045.78;5628461;26;20027;-73
2024/04/24 03:52:52;;;;;;;3.35;1.00;;;;;;;7.30;100.00;101055.25;5630339;26;20004;-74
2024/04/24 03:55:24;;;;;;;5.22;1.30;;;;;;;7.29;100.00;101056.22;5628532;26;20007;-72
2024/04/24 03:57:56;;;;;;;4.35;1.30;;;;;;;7.31;100.00;101067.34;5624263;26;19999;-71
2024/04/24 04:00:28;;;;;;;6.18;1.38;;;;;;;7.34;100.00;101055.88;5632238;26;20110;-72
2024/04/24 04:03:00;;;;;;;3.80;1.13;;;;;;;7.34;100.00;101056.72;5637306;26;20003;-74
2024/04/24 04:05:32;;;;;;;3.72;1.52;;;;;;;7.33;100.00;101065.47;5637550;26;20065;-71
2024/04/24 04:08:04;;;;;;;3.55;1.27;;;;;;;7.25;100.00;101058.19;5635067;26;20015;-73
2024/04/24 04:10:36;;;;;;;5.00;1.40;;;;;;;7.25;100.00;101052.97;5629153;26;20000;-73
2024/04/24 04:13:08;;;;;;;4.03;1.23;;;;;;;7.21;100.00;101053.28;5628937;26;20022;-74
2024/04/24 04:15:40;;;;;;;3.83;1.30;;;;;;;7.08;100.00;101045.44;5629350;26;20059;-74
2024/04/24 04:18:12;;;;;;;2.60;1.00;;;;;;;7.14;100.00;101047.66;5628347;26;20398;-74
2024/04/24 04:20:44;;;;;;;5.43;1.52;;;;;;;7.18;100.00;101046.50;5640117;26;20018;-75
2024/04/24 04:23:16;;;;;;;3.90;1.20;;;;;;;7.19;100.00;101048.16;5628315;26;20004;-72
2024/04/24 04:25:48;;;;;;;3.47;1.15;;;;;;;7.21;100.00;101042.88;5635860;26;20341;-75
2024/04/24 04:28:20;;;;;;;4.50;1.38;;;;;;;7.19;100.00;101036.91;5634278;26;20341;-72
2024/04/24 04:30:52;;;;;;;3.22;1.15;;;;;;;7.18;100.00;101028.25;5630173;26;20012;-73
2024/04/24 04:33:23;;;;;;;7.47;1.50;;;;;;;7.17;100.00;101018.78;5637564;26;20021;-72
2024/04/24 04:35:55;;;;;;;4.93;1.85;;;;;;;7.18;100.00;101015.25;5630063;26;20013;-73
2024/04/24 04:38:27;;;;;;;4.22;1.30;;;;;;;7.17;100.00;101017.97;5640613;26;20005;-74
2024/04/24 04:40:59;;;;;;;4.20;1.73;;;;;;;7.17;100.00;101016.19;5634498;26;20018;-75
2024/04/24 04:43:31;;;;;;;4.50;1.35;;;;;;;7.15;100.00;101027.63;5628566;26;20003;-74
2024/04/24 04:46:03;;;;;;;3.53;1.10;;;;;;;7.10;100.00;101024.53;5628396;26;20353;-74
2024/04/24 04:48:35;;;;;;;4.65;1.35;;;;;;;7.11;100.00;101032.22;5635193;26;20070;-75
2024/04/24 04:51:07;;;;;;;4.63;1.40;;;;;;;7.13;100.00;101034.75;5633371;26;20017;-73
2024/04/24 04:53:39;;;;;;;3.38;1.25;;;;;;;7.09;100.00;101035.88;5638336;26;20003;-74
2024/04/24 04:56:11;;;;;;;3.38;1.00;;;;;;;7.09;100.00;101023.69;5628085;26;20006;-74
2024/04/24 04:58:43;;;;;;;3.83;1.30;;;;;;;7.06;100.00;101005.66;5631602;26;20029;-74
2024/04/24 05:01:18;;;;;;;2.63;1.15;;;;;;;7.14;100.00;101018.16;5632787;26;20003;-72
2024/04/24 05:03:50;;;;;;;2.25;1.10;;;;;;;7.03;100.00;101024.91;5642425;26;20836;-73
2024/04/24 05:06:22;;;;;;;4.07;0.95;;;;;;;6.92;100.00;101014.38;5642117;26;20008;-73
2024/04/24 05:08:53;;;;;;;3.80;1.10;;;;;;;7.01;100.00;101019.00;5633109;26;20006;-73
2024/04/24 05:11:25;;;;;;;3.72;0.88;;;;;;;7.04;100.00;101023.97;5637884;26;19999;-72
2024/04/24 05:13:57;;;;;;;3.10;0.80;;;;;;;7.05;100.00;101022.22;5637304;26;20035;-72
2024/04/24 05:16:29;;;;;;;3.17;0.90;;;;;;;6.99;100.00;101027.84;5636285;26;20004;-74
2024/04/24 05:19:01;;;;;;;3.28;1.05;;;;;;;6.95;100.00;101019.38;5632275;26;20451;-72
2024/04/24 05:21:33;;;;;;;2.88;1.08;;;;;;;7.00;100.00;101019.91;5631313;26;20054;-72
2024/04/24 05:24:05;;;;;;;4.97;1.33;;;;;;;6.99;100.00;101009.59;5638821;26;20002;-74
2024/04/24 05:29:28;;;;;;;5.30;1.55;;;;;;;6.93;100.00;100997.84;5636792;26;20003;-73
2024/04/24 05:31:59;;;;;;;4.28;0.93;;;;;;;6.98;100.00;101003.56;5641748;26;20047;-72
2024/04/24 05:34:31;;;;;;;3.03;1.10;;;;;;;7.11;100.00;101010.53;5630068;26;20015;-70
2024/04/24 05:37:03;;;;;;;4.38;1.00;;;;;;;7.07;100.00;101005.53;5635635;26;20007;-74
2024/04/24 05:39:35;;;;;;;7.18;1.23;;;;;;;7.10;100.00;101006.28;5634897;26;20456;-73
2024/04/24 05:42:07;;;;;;;4.80;0.90;;;;;;;7.10;100.00;101003.69;5637006;26;19998;-74
2024/04/24 05:44:39;;;;;;;3.20;1.00;;;;;;;7.03;100.00;100996.25;5635083;26;20006;-72
2024/04/24 05:47:11;;;;;;;3.78;1.00;;;;;;;7.10;100.00;100990.66;5629657;26;20003;-73
2024/04/24 05:49:43;;;;;;;4.40;1.00;;;;;;;7.11;100.00;100980.09;5634398;26;20003;-73
2024/04/24 05:52:15;;;;;;;4.88;0.80;;;;;;;7.16;100.00;100988.47;5635655;26;20010;-70
2024/04/24 05:54:47;;;;;;;4.28;1.20;;;;;;;7.08;100.00;100982.91;5639859;26;19999;-72
2024/04/24 05:57:22;;;;;;;8.82;1.27;;;;;;;7.17;100.00;100987.53;5629519;26;20026;-74
2024/04/24 05:59:55;;;;;;;4.80;1.10;;;;;;;7.09;100.00;100984.59;5632454;26;20441;-71
2024/04/24 06:02:27;;;;;;;5.85;1.08;;;;;;;7.16;100.00;100993.69;5639202;26;20044;-71
2024/04/24 06:05:00;;;;;;;9.57;1.83;;;;;;;7.09;100.00;100970.75;5637472;26;20476;-75
2024/04/24 06:07:32;;;;;;;5.20;1.02;;;;;;;7.14;100.00;100963.44;5630240;26;20022;-71
2024/04/24 06:10:05;;;;;;;5.55;1.00;;;;;;;7.22;100.00;100979.38;5630584;26;20003;-72
2024/04/24 06:12:36;;;;;;;4.77;1.33;;;;;;;7.26;100.00;100970.41;5637542;26;20027;-72
2024/04/24 06:15:08;;;;;;;2.78;0.90;;;;;;;7.29;100.00;100973.66;5638458;26;20015;-72
2024/04/24 06:17:40;;;;;;;4.72;1.50;;;;;;;7.25;100.00;100958.34;5632795;26;20003;-71
2024/04/24 06:20:16;;;;;;;2.53;0.90;;;;;;;7.39;100.00;100970.41;5635141;26;20003;-75
2024/04/24 06:22:48;;;;;;;4.38;1.13;;;;;;;7.45;100.00;100970.81;5632358;26;20008;-73
2024/04/24 06:25:20;;;;;;;3.45;0.90;;;;;;;7.46;100.00;100967.28;5633102;26;20021;-72
2024/04/24 06:27:53;;;;;;;5.43;1.10;;;;;;;7.60;100.00;100962.84;5630887;26;20042;-74
2024/04/24 06:30:28;;;;;;;4.47;0.90;;;;;;;7.63;100.00;100955.66;5630251;26;20007;-71
2024/04/24 06:33:02;;;;;;;3.20;1.23;;;;;;;7.63;100.00;100968.69;5627957;26;20008;-72
2024/04/24 06:35:34;;;;;;;4.07;1.20;;;;;;;7.60;100.00;100958.47;5638306;26;19995;-72
2024/04/24 06:38:13;;;;;;;4.57;1.30;;;;;;;7.55;100.00;100966.63;5635442;26;20058;-73
2024/04/24 06:40:45;;;;;;;4.43;1.73;;;;;;;7.69;100.00;100959.59;5640437;26;20036;-74
2024/04/24 06:43:20;;;;;;;3.08;1.08;;;;;;;7.75;100.00;100961.78;5638105;26;20039;-74
2024/04/24 06:45:53;;;;;;;5.07;1.40;;;;;;;7.75;100.00;100960.00;5632198;26;20040;-74
2024/04/24 06:48:24;;;;;;;3.78;1.17;;;;;;;7.79;100.00;100963.22;5633402;26;20026;-72
2024/04/24 06:50:59;;;;;;;5.22;1.38;;;;;;;7.76;100.00;100956.44;5637431;26;20004;-75
2024/04/24 06:53:31;;;;;;;4.65;1.23;;;;;;;7.88;100.00;100956.50;5631734;26;20025;-73
2024/04/24 06:56:04;;;;;;;7.47;1.67;;;;;;;8.03;100.00;100952.78;5638166;26;20007;-73
2024/04/24 06:58:37;;;;;;;5.53;1.80;;;;;;;8.25;100.00;100947.66;5631725;26;20457;-73
2024/04/24 07:01:15;;;;;;;5.93;1.60;;;;;;;8.40;100.00;100956.19;5637434;26;20007;-72
2024/04/24 07:03:46;;;;;;;4.22;1.50;;;;;;;8.47;100.00;100954.78;5631885;26;20539;-77
2024/04/24 07:06:22;;;;;;;5.45;1.13;;;;;;;8.56;100.00;100947.22;5635320;26;20004;-72
2024/04/24 07:08:54;;;;;;;3.95;1.20;;;;;;;8.61;100.00;100951.16;5634283;26;20040;-75
2024/04/24 07:11:26;;;;;;;6.07;1.45;;;;;;;8.71;96.24;100944.31;5637291;26;20021;-75
2024/04/24 07:13:58;;;;;;;4.65;1.58;;;;;;;8.72;97.27;100930.28;5640761;26;20017;-75
2024/04/24 07:16:30;;;;;;;8.38;1.77;;;;;;;8.96;98.50;100930.19;5638011;26;20376;-73
2024/04/24 07:19:02;;;;;;;6.05;1.63;;;;;;;9.05;93.21;100939.09;5638079;26;20011;-73
2024/04/24 07:21:34;;;;;;;5.80;1.63;;;;;;;9.00;90.07;100929.00;5630346;26;20383;-72
2024/04/24 07:24:12;;;;;;;8.07;1.70;;;;;;;9.11;90.67;100927.38;5637512;26;20004;-74
2024/04/24 07:26:44;;;;;;;6.55;1.35;;;;;;;9.14;87.68;100929.75;5630007;26;20483;-75
2024/04/24 07:29:15;;;;;;;7.25;1.70;;;;;;;9.19;88.43;100922.38;5632595;26;20016;-74
2024/04/24 07:31:47;;;;;;;4.25;1.40;;;;;;;9.17;91.58;100926.91;5641115;26;20062;-74
2024/04/24 07:34:19;;;;;;;3.92;1.30;;;;;;;9.15;89.81;100934.00;5641822;26;20017;-73
2024/04/24 07:36:51;;;;;;;6.70;1.70;;;;;;;9.13;86.34;100928.91;5634670;26;20019;-74
2024/04/24 07:39:23;;;;;;;4.40;1.40;;;;;;;9.08;90.62;100911.91;5635052;26;20487;-74
2024/04/24 07:41:55;;;;;;;8.18;2.25;;;;;;;9.13;87.12;100921.06;5636220;26;20015;-73
2024/04/24 07:44:27;;;;;;;8.75;1.63;;;;;;;9.18;88.19;100918.09;5637867;26;20010;-75
2024/04/24 07:47:00;;;;;;;7.10;1.80;;;;;;;9.21;87.03;100912.63;5636335;26;20483;-73
2024/04/24 07:49:32;;;;;;;7.65;1.45;;;;;;;9.24;79.45;100920.22;5633963;26;20000;-72
2024/04/24 07:52:04;;;;;;;5.95;1.58;;;;;;;9.23;81.51;100908.94;5636653;26;20019;-73
2024/04/24 07:54:35;;;;;;;5.75;1.35;;;;;;;9.32;82.42;100910.03;5640943;26;20023;-72
2024/04/24 07:57:07;;;;;;;4.20;1.38;;;;;;;9.34;81.37;100896.81;5634097;26;20380;-72
2024/04/24 07:59:39;;;;;;;6.03;1.38;;;;;;;9.57;77.81;100901.03;5639197;26;20013;-71
2024/04/24 08:02:11;;;;;;;7.70;1.45;;;;;;;9.61;78.29;100889.38;5629380;26;20134;-72
2024/04/24 08:04:46;;;;;;;6.80;1.52;;;;;;;9.85;72.91;100904.91;5639375;26;20007;-72
2024/04/24 08:07:18;;;;;;;8.38;1.73;;;;;;;9.84;72.48;100899.78;5642698;26;20725;-71
2024/04/24 08:09:50;;;;;;;8.88;1.98;;;;;;;9.91;74.52;100901.78;5641824;26;20008;-74
2024/04/24 08:12:22;;;;;;;7.32;1.50;;;;;;;9.88;75.89;100894.19;5639144;26;20010;-73
2024/04/24 08:14:54;;;;;;;5.05;1.35;;;;;;;9.94;73.85;100900.72;5644816;26;20600;-74
2024/04/24 08:17:26;;;;;;;5.63;1.48;;;;;;;9.88;73.60;100899.41;5637140;26;20000;-72
2024/04/24 08:19:57;;;;;;;6.03;1.80;;;;;;;9.89;72.72;100902.88;5641576;26;20015;-73
2024/04/24 08:22:29;;;;;;;3.45;1.17;;;;;;;9.81;73.23;100895.66;5641992;26;20367;-71
2024/04/24 08:25:01;;;;;;;4.60;1.30;;;;;;;10.18;82.94;100903.94;5640434;26;20010;-72
2024/04/24 08:27:33;;;;;;;6.47;1.45;;;;;;;10.23;76.55;100893.09;5657767;26;20003;-74
2024/04/24 08:30:06;;;;;;;6.28;1.60;;;;;;;10.47;77.82;100901.56;5636634;26;20088;-72
2024/04/24 08:32:39;;;;;;;4.43;1.17;;;;;;;10.54;67.61;100904.50;5642102;26;20473;-73
2024/04/24 08:35:11;;;;;;;6.25;1.30;;;;;;;10.62;71.01;100891.59;5639552;26;19999;-73
2024/04/24 08:37:43;;;;;;;3.15;1.15;;;;;;;10.87;72.55;100897.34;5639220;26;20674;-75
2024/04/24 08:40:15;;;;;;;7.35;1.48;;;;;;;10.88;69.20;100894.63;5640556;26;20088;-75
2024/04/24 08:42:47;;;;;;;6.70;1.85;;;;;;;11.09;71.10;100891.94;5633903;26;20006;-75
2024/04/24 08:45:19;;;;;;;4.75;1.80;;;;;;;11.08;68.67;100892.09;5637570;26;20048;-74
2024/04/24 08:47:51;;;;;;;6.88;1.45;;;;;;;10.99;64.59;100892.88;5635533;26;20106;-75
2024/04/24 08:50:24;;;;;;;7.03;1.60;;;;;;;10.90;63.98;100900.56;5637112;26;19999;-75
2024/04/24 08:52:58;;;;;;;6.28;2.00;;;;;;;10.96;63.28;100884.31;5635136;26;20039;-75
2024/04/24 08:55:35;;;;;;;5.90;1.90;;;;;;;10.93;65.04;100878.50;5634959;26;20008;-74
2024/04/24 08:58:07;;;;;;;4.75;1.20;;;;;;;11.05;71.17;100881.84;5638198;26;20742;-74
2024/04/24 09:00:40;;;;;;;7.28;1.73;;;;;;;11.14;68.11;100881.91;5635812;26;19999;-74
2024/04/24 09:03:18;;;;;;;4.88;1.35;;;;;;;11.34;68.45;100882.78;5634106;26;20574;-72
2024/04/24 09:05:52;;;;;;;4.32;1.60;;;;;;;11.24;67.93;100894.22;5637890;26;20031;-74
2024/04/24 09:08:24;;;;;;;5.47;1.67;;;;;;;11.25;66.42;100878.34;5635851;26;20028;-74
2024/04/24 09:10:56;;;;;;;5.43;1.65;;;;;;;11.27;65.08;100881.66;5638074;26;20033;-73
2024/04/24 09:13:28;;;;;;;5.90;1.75;;;;;;;11.07;67.66;100891.25;5633924;26;20004;-75
2024/04/24 09:16:07;;;;;;;4.65;1.40;;;;;;;11.17;70.15;100891.28;5637059;26;20010;-74
2024/04/24 09:18:59;;;;;;;7.72;1.70;;;;;;;11.35;70.04;100886.25;5637824;26;20481;-74
2024/04/24 09:21:34;;;;;;;9.30;2.13;;;;;;;11.01;68.90;100877.84;5653487;26;19995;-75
2024/04/24 09:24:06;;;;;;;6.68;1.67;;;;;;;10.95;67.63;100882.66;5638330;26;20057;-75
2024/04/24 09:26:39;;;;;;;5.65;1.30;;;;;;;10.84;68.88;100874.88;5640533;26;20589;-75
2024/04/24 09:29:18;;;;;;;;;;;;;;;11.62;67.03;100881.16;5633635;26;20036;-75
2024/04/24 09:31:49;;;;;;;8.23;1.58;;;;;;;11.12;64.50;100867.25;5634382;26;19956;-74
2024/04/24 09:34:24;;;;;;;6.43;1.48;;;;;;;11.29;64.27;100874.50;5635730;26;20405;-73
2024/04/24 09:36:57;;;;;;;5.57;1.63;;;;;;;11.36;63.67;100875.59;5640072;26;20009;-74
2024/04/24 09:39:30;;;;;;;6.10;1.50;;;;;;;11.55;66.32;100872.19;5640612;26;20031;-73
2024/04/24 09:42:02;;;;;;;;;;;;;;;12.33;64.38;100870.44;5634264;26;20495;-74
2024/04/24 09:44:42;;;;;;;6.35;1.30;;;;;;;11.88;63.83;100881.50;5639678;26;19971;-74
2024/04/24 09:47:15;;;;;;;4.93;1.10;;;;;;;11.84;64.02;100864.38;5634325;26;20370;-74
2024/04/24 09:49:49;;;;;;;3.65;1.17;;;;;;;11.83;61.96;100877.63;5636448;26;20035;-72
2024/04/24 09:52:21;;;;;;;4.10;1.30;;;;;;;11.69;61.47;100860.47;5638804;26;20035;-73
2024/04/24 09:54:54;;;;;;;5.05;1.45;;;;;;;11.75;63.51;100866.97;5637344;26;20011;-71
2024/04/24 09:57:32;;;;;;;6.80;1.38;;;;;;;11.86;61.65;100865.09;5637429;26;20035;-73
2024/04/24 10:00:05;;;;;;;5.45;1.27;;;;;;;12.03;61.99;100865.34;5638589;26;20040;-74
2024/04/24 10:02:39;;;;;;;7.05;1.40;;;;;;;12.30;62.38;100860.19;5634380;26;20039;-74
2024/04/24 10:05:23;;;;;;;5.78;1.30;;;;;;;12.37;62.38;100857.84;5636929;26;20042;-75
2024/04/24 10:08:01;;;;;;;7.85;1.38;;;;;;;12.11;60.87;100857.59;5636684;26;20050;-74
2024/04/24 10:10:35;;;;;;;4.45;1.30;;;;;;;11.95;62.12;100857.34;5645782;26;20055;-74
2024/04/24 10:13:13;;;;;;;4.07;1.30;;;;;;;11.81;59.65;100872.50;5636162;26;20013;-74
2024/04/24 10:15:49;;;;;;;6.43;1.58;;;;;;;11.79;61.60;100861.31;5641114;26;20004;-74
2024/04/24 10:18:22;;;;;;;6.72;1.92;;;;;;;11.71;61.69;100853.31;5634957;26;20027;-73
2024/04/24 10:20:55;;;;;;;5.68;1.63;;;;;;;11.80;64.97;100859.53;5639887;26;20050;-73
2024/04/24 10:23:27;;;;;;;5.88;1.30;;;;;;;11.87;63.37;100847.53;5641089;26;20039;-73
2024/04/24 10:26:00;;;;;;;5.50;1.55;;;;;;;11.98;62.79;100844.78;5637301;26;20008;-74
2024/04/24 10:28:32;;;;;;;5.75;1.50;;;;;;;12.05;64.92;100838.00;5636381;26;20697;-74
2024/04/24 10:31:06;;;;;;;6.13;1.50;;;;;;;11.86;62.19;100867.72;5635844;26;20039;-72
2024/04/24 10:33:46;;;;;;;5.53;1.55;;;;;;;11.52;72.59;100884.78;5636302;26;20035;-73
2024/04/24 10:36:18;;;;;;;3.03;0.65;;;;;;;10.92;75.47;100856.72;5637561;26;20007;-74
2024/04/24 10:38:54;;;;;;;3.25;0.90;;;;;;;10.78;79.76;100864.09;5628795;26;20751;-74
2024/04/24 10:41:28;;;;;;;4.90;1.50;;;;;;;10.50;84.13;100853.34;5637395;26;20036;-74
2024/04/24 10:44:00;;;;;;;3.47;1.08;;;;;;;10.31;97.51;100840.13;5634803;26;20032;-73
2024/04/24 10:46:32;;;;;;;2.60;1.33;;;;;;;10.37;100.00;100843.03;5636568;26;20013;-75
2024/04/24 10:49:06;;;;;;;3.70;1.08;;;;;;;10.61;100.00;100836.72;5640619;26;20007;-74
2024/04/24 10:51:46;;;;;;;1.98;0.75;;;;;;;10.89;98.78;100840.41;5634078;26;20032;-74
2024/04/24 10:54:18;;;;;;;4.93;1.38;;;;;;;10.89;99.08;100819.44;5639991;26;20043;-74
2024/04/24 10:56:56;;;;;;;5.18;1.17;;;;;;;11.34;100.00;100829.50;5636374;26;20020;-74
2024/04/24 10:59:33;;;;;;;2.70;0.82;;;;;;;11.63;100.00;100824.28;5640977;26;20031;-73
2024/04/24 11:02:17;;;;;;;2.95;1.00;;;;;;;11.83;90.77;100809.38;5640296;26;20373;-74
2024/04/24 11:04:49;;;;;;;2.92;0.90;;;;;;;11.74;85.27;100808.38;5633658;26;20035;-74
2024/04/24 11:07:21;;;;;;;2.83;0.85;;;;;;;11.79;74.30;100813.25;5639143;26;20017;-73
2024/04/24 11:09:53;;;;;;;3.00;1.15;;;;;;;12.04;86.64;100809.22;5643429;26;19996;-74
2024/04/24 11:12:26;;;;;;;3.28;0.90;;;;;;;12.09;66.51;100796.53;5644576;26;20008;-74
2024/04/24 11:14:58;;;;;;;3.88;1.38;;;;;;;12.24;69.48;100796.91;5645916;26;20025;-72
2024/04/24 11:17:30;;;;;;;5.03;0.98;;;;;;;12.32;65.66;100789.97;5642494;26;20007;-73
2024/04/24 11:20:02;;;;;;;4.18;1.20;;;;;;;12.52;71.91;100792.53;5639838;26;20059;-74
2024/04/24 11:22:34;;;;;;;3.10;1.00;;;;;;;12.81;67.44;100788.00;5645058;26;20157;-73
2024/04/24 11:25:09;;;;;;;3.92;1.30;;;;;;;12.98;65.04;100786.38;5641685;26;20483;-74
2024/04/24 11:27:43;;;;;;;6.00;1.15;;;;;;;13.03;61.76;100784.13;5643438;26;20513;-75
2024/04/24 11:30:18;;;;;;;4.78;1.10;;;;;;;13.20;63.30;100785.13;5642772;26;20063;-75
2024/04/24 11:32:51;;;;;;;3.58;1.20;;;;;;;13.09;58.88;100777.44;5642724;26;20509;-73
2024/04/24 11:35:25;;;;;;;3.40;0.98;;;;;;;13.00;60.63;100789.69;5642426;26;20027;-75
2024/04/24 11:37:57;;;;;;;4.28;0.80;;;;;;;13.18;56.89;100776.53;5638568;26;20043;-75
2024/04/24 11:40:28;;;;;;;11.05;1.77;;;;;;;13.13;59.62;100777.00;5640309;26;20043;-73
2024/04/24 11:43:00;;;;;;;6.85;1.65;;;;;;;13.34;63.23;100773.31;5636924;26;20031;-73
2024/04/24 11:45:33;;;;;;;6.82;1.52;;;;;;;13.35;64.51;100778.41;5635836;26;20361;-74
2024/04/24 11:48:06;;;;;;;5.28;1.48;;;;;;;13.30;61.00;100769.31;5638666;26;20123;-74
2024/04/24 11:50:39;;;;;;;6.93;1.70;;;;;;;13.31;65.52;100777.06;5640204;26;20372;-76
2024/04/24 11:53:10;;;;;;;3.20;0.90;;;;;;;13.53;64.13;100774.97;5643855;26;20030;-75
2024/04/24 11:55:43;;;;;;;6.88;1.48;;;;;;;13.66;61.02;100769.31;5640147;26;20031;-73